sensor_id;sensor_type;location;lat;lon;timestamp;P1;durP1;ratioP1;P2;durP2;ratioP2
45043;SDS011;30784;48.490;9.688;2023-01-13T00:02:12;1.65;;;0.32;;
45043;SDS011;30784;48.490;9.688;2023-01-13T00:04:38;2.53;;;0.38;;
45043;SDS011;30784;48.490;9.688;2023-01-13T00:07:03;3.88;;;0.30;;
45043;SDS011;30784;48.490;9.688;2023-01-13T00:09:29;1.35;;;0.30;;
45043;SDS011;30784;48.490;9.688;2023-01-13T00:11:54;1.40;;;0.20;;
45043;SDS011;30784;48.490;9.688;2023-01-13T00:14:20;1.50;;;0.25;;
45043;SDS011;30784;48.490;9.688;2023-01-13T00:16:46;1.92;;;0.45;;
45043;SDS011;30784;48.490;9.688;2023-01-13T00:19:11;2.55;;;0.40;;
45043;SDS011;30784;48.490;9.688;2023-01-13T00:21:37;1.20;;;0.20;;
45043;SDS011;30784;48.490;9.688;2023-01-13T00:24:03;4.88;;;0.60;;
45043;SDS011;30784;48.490;9.688;2023-01-13T00:26:28;3.72;;;0.60;;
45043;SDS011;30784;48.490;9.688;2023-01-13T00:28:57;2.22;;;0.50;;
45043;SDS011;30784;48.490;9.688;2023-01-13T00:31:24;3.08;;;0.38;;
45043;SDS011;30784;48.490;9.688;2023-01-13T00:33:51;1.88;;;0.35;;
45043;SDS011;30784;48.490;9.688;2023-01-13T00:36:18;1.55;;;0.40;;
45043;SDS011;30784;48.490;9.688;2023-01-13T00:38:44;1.13;;;0.20;;
45043;SDS011;30784;48.490;9.688;2023-01-13T00:41:12;2.53;;;0.50;;
45043;SDS011;30784;48.490;9.688;2023-01-13T00:43:40;3.50;;;0.55;;
45043;SDS011;30784;48.490;9.688;2023-01-13T00:46:06;2.50;;;0.47;;
45043;SDS011;30784;48.490;9.688;2023-01-13T00:48:34;1.38;;;0.20;;
45043;SDS011;30784;48.490;9.688;2023-01-13T00:53:28;1.45;;;0.25;;
45043;SDS011;30784;48.490;9.688;2023-01-13T00:55:58;1.55;;;0.30;;
45043;SDS011;30784;48.490;9.688;2023-01-13T00:58:26;1.80;;;0.20;;
45043;SDS011;30784;48.490;9.688;2023-01-13T01:00:52;1.38;;;0.30;;
45043;SDS011;30784;48.490;9.688;2023-01-13T01:03:18;3.17;;;0.43;;
45043;SDS011;30784;48.490;9.688;2023-01-13T01:05:43;2.47;;;0.47;;
45043;SDS011;30784;48.490;9.688;2023-01-13T01:08:09;3.78;;;0.60;;
45043;SDS011;30784;48.490;9.688;2023-01-13T01:10:34;2.28;;;0.52;;
45043;SDS011;30784;48.490;9.688;2023-01-13T01:13:00;2.47;;;0.68;;
45043;SDS011;30784;48.490;9.688;2023-01-13T01:15:25;2.83;;;0.70;;
45043;SDS011;30784;48.490;9.688;2023-01-13T01:17:51;2.20;;;0.50;;
45043;SDS011;30784;48.490;9.688;2023-01-13T01:20:16;4.05;;;0.60;;
45043;SDS011;30784;48.490;9.688;2023-01-13T01:22:42;3.85;;;0.70;;
45043;SDS011;30784;48.490;9.688;2023-01-13T01:25:08;1.45;;;0.35;;
45043;SDS011;30784;48.490;9.688;2023-01-13T01:27:33;3.08;;;0.43;;
45043;SDS011;30784;48.490;9.688;2023-01-13T01:29:59;2.15;;;0.47;;
45043;SDS011;30784;48.490;9.688;2023-01-13T01:32:24;2.92;;;0.45;;
45043;SDS011;30784;48.490;9.688;2023-01-13T01:34:50;2.75;;;0.40;;
45043;SDS011;30784;48.490;9.688;2023-01-13T01:37:15;1.83;;;0.60;;
45043;SDS011;30784;48.490;9.688;2023-01-13T01:39:41;3.65;;;0.60;;
45043;SDS011;30784;48.490;9.688;2023-01-13T01:42:11;1.80;;;0.38;;
45043;SDS011;30784;48.490;9.688;2023-01-13T01:45:09;1.70;;;0.40;;
45043;SDS011;30784;48.490;9.688;2023-01-13T01:47:41;1.98;;;0.50;;
45043;SDS011;30784;48.490;9.688;2023-01-13T01:50:07;4.07;;;0.77;;
45043;SDS011;30784;48.490;9.688;2023-01-13T01:52:36;1.17;;;0.35;;
45043;SDS011;30784;48.490;9.688;2023-01-13T01:55:16;2.13;;;0.50;;
45043;SDS011;30784;48.490;9.688;2023-01-13T01:57:57;4.18;;;0.75;;
45043;SDS011;30784;48.490;9.688;2023-01-13T02:00:31;3.63;;;0.60;;
45043;SDS011;30784;48.490;9.688;2023-01-13T02:02:57;1.85;;;0.50;;
45043;SDS011;30784;48.490;9.688;2023-01-13T02:05:24;2.95;;;0.70;;
45043;SDS011;30784;48.490;9.688;2023-01-13T02:07:51;2.65;;;0.68;;
45043;SDS011;30784;48.490;9.688;2023-01-13T02:10:19;3.72;;;0.70;;
45043;SDS011;30784;48.490;9.688;2023-01-13T02:12:47;2.90;;;0.60;;
45043;SDS011;30784;48.490;9.688;2023-01-13T02:28:56;4.78;;;0.75;;
45043;SDS011;30784;48.490;9.688;2023-01-13T02:31:52;4.15;;;0.60;;
45043;SDS011;30784;48.490;9.688;2023-01-13T02:34:34;2.85;;;0.70;;
45043;SDS011;30784;48.490;9.688;2023-01-13T02:37:10;4.03;;;0.80;;
45043;SDS011;30784;48.490;9.688;2023-01-13T02:39:44;3.17;;;0.95;;
45043;SDS011;30784;48.490;9.688;2023-01-13T02:43:02;3.53;;;0.75;;
45043;SDS011;30784;48.490;9.688;2023-01-13T02:45:36;4.00;;;0.73;;
45043;SDS011;30784;48.490;9.688;2023-01-13T02:48:08;2.13;;;0.47;;
45043;SDS011;30784;48.490;9.688;2023-01-13T02:50:40;2.78;;;0.52;;
45043;SDS011;30784;48.490;9.688;2023-01-13T02:53:16;3.33;;;0.70;;
45043;SDS011;30784;48.490;9.688;2023-01-13T02:55:46;4.20;;;0.65;;
45043;SDS011;30784;48.490;9.688;2023-01-13T02:58:17;4.03;;;0.63;;
45043;SDS011;30784;48.490;9.688;2023-01-13T03:00:45;1.90;;;0.60;;
45043;SDS011;30784;48.490;9.688;2023-01-13T03:03:12;2.92;;;0.60;;
45043;SDS011;30784;48.490;9.688;2023-01-13T03:05:38;2.33;;;0.50;;
45043;SDS011;30784;48.490;9.688;2023-01-13T03:19:12;3.92;;;0.77;;
45043;SDS011;30784;48.490;9.688;2023-01-13T03:21:56;3.33;;;0.80;;
45043;SDS011;30784;48.490;9.688;2023-01-13T03:24:31;5.32;;;0.80;;
45043;SDS011;30784;48.490;9.688;2023-01-13T03:27:08;2.92;;;0.68;;
45043;SDS011;30784;48.490;9.688;2023-01-13T03:29:41;3.22;;;0.60;;
45043;SDS011;30784;48.490;9.688;2023-01-13T03:32:23;3.53;;;0.70;;
45043;SDS011;30784;48.490;9.688;2023-01-13T03:35:19;3.40;;;0.63;;
45043;SDS011;30784;48.490;9.688;2023-01-13T03:38:20;3.05;;;0.52;;
45043;SDS011;30784;48.490;9.688;2023-01-13T03:40:56;3.90;;;0.70;;
45043;SDS011;30784;48.490;9.688;2023-01-13T03:43:33;3.42;;;0.70;;
45043;SDS011;30784;48.490;9.688;2023-01-13T03:46:35;5.03;;;0.60;;
45043;SDS011;30784;48.490;9.688;2023-01-13T03:49:06;1.67;;;0.57;;
45043;SDS011;30784;48.490;9.688;2023-01-13T03:51:36;3.17;;;0.65;;
45043;SDS011;30784;48.490;9.688;2023-01-13T03:54:05;4.45;;;1.20;;
45043;SDS011;30784;48.490;9.688;2023-01-13T03:56:35;4.85;;;1.17;;
45043;SDS011;30784;48.490;9.688;2023-01-13T03:59:05;3.22;;;0.77;;
45043;SDS011;30784;48.490;9.688;2023-01-13T04:01:47;4.20;;;0.70;;
45043;SDS011;30784;48.490;9.688;2023-01-13T04:04:36;3.65;;;0.80;;
45043;SDS011;30784;48.490;9.688;2023-01-13T04:07:30;3.28;;;0.77;;
45043;SDS011;30784;48.490;9.688;2023-01-13T04:10:24;2.83;;;0.70;;
45043;SDS011;30784;48.490;9.688;2023-01-13T04:13:01;3.08;;;0.57;;
45043;SDS011;30784;48.490;9.688;2023-01-13T04:20:32;5.00;;;0.77;;
45043;SDS011;30784;48.490;9.688;2023-01-13T04:22:58;3.38;;;0.60;;
45043;SDS011;30784;48.490;9.688;2023-01-13T04:25:23;3.28;;;0.80;;
45043;SDS011;30784;48.490;9.688;2023-01-13T04:27:49;3.30;;;0.80;;
45043;SDS011;30784;48.490;9.688;2023-01-13T04:30:14;3.10;;;0.70;;
45043;SDS011;30784;48.490;9.688;2023-01-13T04:32:40;3.95;;;0.77;;
45043;SDS011;30784;48.490;9.688;2023-01-13T04:35:06;5.95;;;1.23;;
45043;SDS011;30784;48.490;9.688;2023-01-13T04:37:37;3.97;;;1.10;;
45043;SDS011;30784;48.490;9.688;2023-01-13T04:40:02;3.35;;;1.00;;
45043;SDS011;30784;48.490;9.688;2023-01-13T04:42:29;4.68;;;0.80;;
45043;SDS011;30784;48.490;9.688;2023-01-13T04:44:54;3.10;;;0.75;;
45043;SDS011;30784;48.490;9.688;2023-01-13T04:47:20;2.60;;;0.70;;
45043;SDS011;30784;48.490;9.688;2023-01-13T04:49:46;5.15;;;0.85;;
45043;SDS011;30784;48.490;9.688;2023-01-13T04:52:11;2.00;;;0.80;;
45043;SDS011;30784;48.490;9.688;2023-01-13T04:54:37;4.63;;;0.90;;
45043;SDS011;30784;48.490;9.688;2023-01-13T04:57:02;4.57;;;0.80;;
45043;SDS011;30784;48.490;9.688;2023-01-13T04:59:28;4.57;;;0.80;;
45043;SDS011;30784;48.490;9.688;2023-01-13T05:01:54;3.38;;;0.70;;
45043;SDS011;30784;48.490;9.688;2023-01-13T05:04:19;5.32;;;1.10;;
45043;SDS011;30784;48.490;9.688;2023-01-13T05:06:45;4.75;;;1.15;;
45043;SDS011;30784;48.490;9.688;2023-01-13T05:09:10;7.15;;;2.33;;
45043;SDS011;30784;48.490;9.688;2023-01-13T05:11:37;3.80;;;1.00;;
45043;SDS011;30784;48.490;9.688;2023-01-13T05:14:22;5.13;;;0.90;;
45043;SDS011;30784;48.490;9.688;2023-01-13T05:17:06;4.53;;;0.88;;
45043;SDS011;30784;48.490;9.688;2023-01-13T05:19:34;5.03;;;1.48;;
45043;SDS011;30784;48.490;9.688;2023-01-13T05:22:01;4.72;;;1.20;;
45043;SDS011;30784;48.490;9.688;2023-01-13T05:24:45;5.28;;;1.40;;
45043;SDS011;30784;48.490;9.688;2023-01-13T05:27:30;4.63;;;1.23;;
45043;SDS011;30784;48.490;9.688;2023-01-13T05:29:56;4.25;;;0.90;;
45043;SDS011;30784;48.490;9.688;2023-01-13T05:32:21;4.82;;;1.02;;
45043;SDS011;30784;48.490;9.688;2023-01-13T05:34:48;3.50;;;0.90;;
45043;SDS011;30784;48.490;9.688;2023-01-13T05:37:13;7.90;;;2.50;;
45043;SDS011;30784;48.490;9.688;2023-01-13T05:39:39;5.05;;;1.73;;
45043;SDS011;30784;48.490;9.688;2023-01-13T05:42:24;4.50;;;1.30;;
45043;SDS011;30784;48.490;9.688;2023-01-13T05:45:08;3.55;;;0.73;;
45043;SDS011;30784;48.490;9.688;2023-01-13T05:47:34;2.53;;;0.60;;
45043;SDS011;30784;48.490;9.688;2023-01-13T05:50:00;2.38;;;0.50;;
45043;SDS011;30784;48.490;9.688;2023-01-13T05:52:26;2.85;;;0.63;;
45043;SDS011;30784;48.490;9.688;2023-01-13T05:54:52;2.10;;;0.40;;
45043;SDS011;30784;48.490;9.688;2023-01-13T05:57:18;1.85;;;0.38;;
45043;SDS011;30784;48.490;9.688;2023-01-13T05:59:43;2.10;;;0.60;;
45043;SDS011;30784;48.490;9.688;2023-01-13T06:02:09;2.17;;;0.60;;
45043;SDS011;30784;48.490;9.688;2023-01-13T06:04:34;3.22;;;0.90;;
45043;SDS011;30784;48.490;9.688;2023-01-13T06:07:00;2.72;;;0.63;;
45043;SDS011;30784;48.490;9.688;2023-01-13T06:09:25;2.30;;;0.40;;
45043;SDS011;30784;48.490;9.688;2023-01-13T06:11:51;2.22;;;0.40;;
45043;SDS011;30784;48.490;9.688;2023-01-13T06:14:16;1.45;;;0.50;;
45043;SDS011;30784;48.490;9.688;2023-01-13T06:16:42;1.67;;;0.45;;
45043;SDS011;30784;48.490;9.688;2023-01-13T06:19:09;2.72;;;0.60;;
45043;SDS011;30784;48.490;9.688;2023-01-13T06:21:37;3.65;;;0.90;;
45043;SDS011;30784;48.490;9.688;2023-01-13T06:24:03;4.07;;;1.10;;
45043;SDS011;30784;48.490;9.688;2023-01-13T06:26:30;3.60;;;0.95;;
45043;SDS011;30784;48.490;9.688;2023-01-13T06:29:00;2.72;;;0.80;;
45043;SDS011;30784;48.490;9.688;2023-01-13T06:31:25;2.50;;;0.65;;
45043;SDS011;30784;48.490;9.688;2023-01-13T06:33:53;3.50;;;0.70;;
45043;SDS011;30784;48.490;9.688;2023-01-13T06:36:24;1.77;;;0.60;;
45043;SDS011;30784;48.490;9.688;2023-01-13T06:38:53;2.50;;;0.60;;
45043;SDS011;30784;48.490;9.688;2023-01-13T06:41:22;2.92;;;0.50;;
45043;SDS011;30784;48.490;9.688;2023-01-13T06:44:08;2.45;;;0.68;;
45043;SDS011;30784;48.490;9.688;2023-01-13T06:46:33;1.73;;;0.68;;
45043;SDS011;30784;48.490;9.688;2023-01-13T06:48:59;2.63;;;0.80;;
45043;SDS011;30784;48.490;9.688;2023-01-13T06:51:25;3.10;;;0.93;;
45043;SDS011;30784;48.490;9.688;2023-01-13T06:53:51;3.28;;;0.85;;
45043;SDS011;30784;48.490;9.688;2023-01-13T06:56:16;3.20;;;0.70;;
45043;SDS011;30784;48.490;9.688;2023-01-13T06:58:42;2.83;;;0.50;;
45043;SDS011;30784;48.490;9.688;2023-01-13T07:01:07;2.92;;;0.60;;
45043;SDS011;30784;48.490;9.688;2023-01-13T07:03:33;2.08;;;0.60;;
45043;SDS011;30784;48.490;9.688;2023-01-13T07:05:58;1.35;;;0.50;;
45043;SDS011;30784;48.490;9.688;2023-01-13T07:08:25;2.67;;;0.60;;
45043;SDS011;30784;48.490;9.688;2023-01-13T07:10:51;1.73;;;0.50;;
45043;SDS011;30784;48.490;9.688;2023-01-13T07:13:17;3.17;;;0.75;;
45043;SDS011;30784;48.490;9.688;2023-01-13T07:16:03;1.17;;;0.50;;
45043;SDS011;30784;48.490;9.688;2023-01-13T07:18:31;2.85;;;0.82;;
45043;SDS011;30784;48.490;9.688;2023-01-13T07:20:58;1.88;;;0.60;;
45043;SDS011;30784;48.490;9.688;2023-01-13T07:23:35;2.42;;;0.43;;
45043;SDS011;30784;48.490;9.688;2023-01-13T07:26:02;2.65;;;0.60;;
45043;SDS011;30784;48.490;9.688;2023-01-13T07:28:29;1.75;;;0.60;;
45043;SDS011;30784;48.490;9.688;2023-01-13T07:30:55;3.90;;;0.70;;
45043;SDS011;30784;48.490;9.688;2023-01-13T07:33:21;1.55;;;0.55;;
45043;SDS011;30784;48.490;9.688;2023-01-13T07:35:47;1.67;;;0.45;;
45043;SDS011;30784;48.490;9.688;2023-01-13T07:38:19;2.20;;;0.60;;
45043;SDS011;30784;48.490;9.688;2023-01-13T07:40:44;3.25;;;0.80;;
45043;SDS011;30784;48.490;9.688;2023-01-13T07:43:13;2.78;;;0.70;;
45043;SDS011;30784;48.490;9.688;2023-01-13T07:45:57;2.60;;;0.60;;
45043;SDS011;30784;48.490;9.688;2023-01-13T07:48:23;4.05;;;1.00;;
45043;SDS011;30784;48.490;9.688;2023-01-13T07:50:49;3.35;;;0.90;;
45043;SDS011;30784;48.490;9.688;2023-01-13T07:53:15;3.35;;;1.02;;
45043;SDS011;30784;48.490;9.688;2023-01-13T07:55:41;4.13;;;0.98;;
45043;SDS011;30784;48.490;9.688;2023-01-13T07:58:07;3.08;;;0.90;;
45043;SDS011;30784;48.490;9.688;2023-01-13T08:00:33;2.03;;;0.57;;
45043;SDS011;30784;48.490;9.688;2023-01-13T08:02:59;4.00;;;0.70;;
45043;SDS011;30784;48.490;9.688;2023-01-13T08:05:25;2.22;;;0.80;;
45043;SDS011;30784;48.490;9.688;2023-01-13T08:07:50;2.50;;;0.80;;
45043;SDS011;30784;48.490;9.688;2023-01-13T08:10:16;2.78;;;0.82;;
45043;SDS011;30784;48.490;9.688;2023-01-13T08:12:41;5.82;;;1.27;;
45043;SDS011;30784;48.490;9.688;2023-01-13T08:15:25;5.32;;;1.40;;
45043;SDS011;30784;48.490;9.688;2023-01-13T08:17:51;3.95;;;1.00;;
45043;SDS011;30784;48.490;9.688;2023-01-13T08:20:16;2.05;;;0.50;;
45043;SDS011;30784;48.490;9.688;2023-01-13T08:22:43;1.58;;;0.40;;
45043;SDS011;30784;48.490;9.688;2023-01-13T08:25:08;1.55;;;0.50;;
45043;SDS011;30784;48.490;9.688;2023-01-13T08:27:34;1.98;;;0.52;;
45043;SDS011;30784;48.490;9.688;2023-01-13T08:29:59;1.27;;;0.40;;
45043;SDS011;30784;48.490;9.688;2023-01-13T08:32:25;2.60;;;0.50;;
45043;SDS011;30784;48.490;9.688;2023-01-13T08:34:50;2.78;;;0.63;;
45043;SDS011;30784;48.490;9.688;2023-01-13T08:37:16;5.30;;;1.42;;
45043;SDS011;30784;48.490;9.688;2023-01-13T08:39:41;3.50;;;0.93;;
45043;SDS011;30784;48.490;9.688;2023-01-13T08:42:07;3.85;;;1.00;;
45043;SDS011;30784;48.490;9.688;2023-01-13T08:44:32;4.03;;;1.20;;
45043;SDS011;30784;48.490;9.688;2023-01-13T08:46:58;4.03;;;1.20;;
45043;SDS011;30784;48.490;9.688;2023-01-13T08:49:24;2.78;;;1.00;;
45043;SDS011;30784;48.490;9.688;2023-01-13T08:51:50;1.80;;;0.60;;
45043;SDS011;30784;48.490;9.688;2023-01-13T08:54:16;1.95;;;0.60;;
45043;SDS011;30784;48.490;9.688;2023-01-13T08:56:42;2.53;;;0.55;;
45043;SDS011;30784;48.490;9.688;2023-01-13T08:59:12;3.22;;;0.30;;
45043;SDS011;30784;48.490;9.688;2023-01-13T09:04:05;2.50;;;0.60;;
45043;SDS011;30784;48.490;9.688;2023-01-13T09:06:33;0.85;;;0.30;;
45043;SDS011;30784;48.490;9.688;2023-01-13T09:08:59;1.95;;;0.52;;
45043;SDS011;30784;48.490;9.688;2023-01-13T09:11:30;3.67;;;0.90;;
45043;SDS011;30784;48.490;9.688;2023-01-13T09:16:46;1.60;;;0.32;;
45043;SDS011;30784;48.490;9.688;2023-01-13T09:19:11;1.40;;;0.40;;
45043;SDS011;30784;48.490;9.688;2023-01-13T09:21:37;0.88;;;0.20;;
45043;SDS011;30784;48.490;9.688;2023-01-13T09:24:02;1.95;;;0.40;;
45043;SDS011;30784;48.490;9.688;2023-01-13T09:26:28;0.32;;;0.15;;
45043;SDS011;30784;48.490;9.688;2023-01-13T09:28:53;0.40;;;0.20;;
45043;SDS011;30784;48.490;9.688;2023-01-13T09:31:19;1.05;;;0.30;;
45043;SDS011;30784;48.490;9.688;2023-01-13T09:33:44;1.50;;;0.20;;
45043;SDS011;30784;48.490;9.688;2023-01-13T09:36:29;1.15;;;0.40;;
45043;SDS011;30784;48.490;9.688;2023-01-13T09:38:54;0.32;;;0.10;;
45043;SDS011;30784;48.490;9.688;2023-01-13T09:41:20;1.10;;;0.30;;
45043;SDS011;30784;48.490;9.688;2023-01-13T09:44:07;1.05;;;0.20;;
45043;SDS011;30784;48.490;9.688;2023-01-13T09:46:40;1.33;;;0.40;;
45043;SDS011;30784;48.490;9.688;2023-01-13T09:51:46;2.45;;;0.55;;
45043;SDS011;30784;48.490;9.688;2023-01-13T09:57:11;2.05;;;0.70;;
45043;SDS011;30784;48.490;9.688;2023-01-13T09:59:39;3.50;;;0.70;;
45043;SDS011;30784;48.490;9.688;2023-01-13T10:07:36;2.20;;;0.60;;
45043;SDS011;30784;48.490;9.688;2023-01-13T10:10:09;2.28;;;0.60;;
45043;SDS011;30784;48.490;9.688;2023-01-13T10:12:40;1.42;;;0.52;;
45043;SDS011;30784;48.490;9.688;2023-01-13T10:15:27;3.17;;;1.02;;
45043;SDS011;30784;48.490;9.688;2023-01-13T10:28:29;0.88;;;0.40;;
45043;SDS011;30784;48.490;9.688;2023-01-13T10:30:54;4.35;;;0.80;;
45043;SDS011;30784;48.490;9.688;2023-01-13T10:33:21;3.03;;;0.70;;
45043;SDS011;30784;48.490;9.688;2023-01-13T10:40:50;1.60;;;0.40;;
45043;SDS011;30784;48.490;9.688;2023-01-13T10:43:24;2.58;;;0.50;;
45043;SDS011;30784;48.490;9.688;2023-01-13T10:46:01;1.33;;;0.40;;
45043;SDS011;30784;48.490;9.688;2023-01-13T10:48:36;1.58;;;0.40;;
45043;SDS011;30784;48.490;9.688;2023-01-13T10:53:43;3.25;;;0.90;;
45043;SDS011;30784;48.490;9.688;2023-01-13T10:56:14;1.10;;;0.40;;
45043;SDS011;30784;48.490;9.688;2023-01-13T10:58:41;3.53;;;0.68;;
45043;SDS011;30784;48.490;9.688;2023-01-13T11:01:09;1.83;;;0.40;;
45043;SDS011;30784;48.490;9.688;2023-01-13T11:03:45;2.65;;;0.50;;
45043;SDS011;30784;48.490;9.688;2023-01-13T11:06:25;1.25;;;0.30;;
45043;SDS011;30784;48.490;9.688;2023-01-13T11:08:54;1.58;;;0.20;;
45043;SDS011;30784;48.490;9.688;2023-01-13T11:11:39;1.63;;;0.40;;
45043;SDS011;30784;48.490;9.688;2023-01-13T11:14:09;1.02;;;0.10;;
45043;SDS011;30784;48.490;9.688;2023-01-13T11:19:24;1.02;;;0.30;;
45043;SDS011;30784;48.490;9.688;2023-01-13T11:24:45;1.38;;;0.45;;
45043;SDS011;30784;48.490;9.688;2023-01-13T11:27:15;1.88;;;0.40;;
45043;SDS011;30784;48.490;9.688;2023-01-13T11:32:58;2.40;;;0.60;;
45043;SDS011;30784;48.490;9.688;2023-01-13T11:35:37;3.25;;;0.77;;
45043;SDS011;30784;48.490;9.688;2023-01-13T11:38:25;2.50;;;0.55;;
45043;SDS011;30784;48.490;9.688;2023-01-13T11:44:20;0.93;;;0.20;;
45043;SDS011;30784;48.490;9.688;2023-01-13T11:46:56;2.20;;;0.70;;
45043;SDS011;30784;48.490;9.688;2023-01-13T11:49:23;3.75;;;1.10;;
45043;SDS011;30784;48.490;9.688;2023-01-13T12:05:09;0.95;;;0.40;;
45043;SDS011;30784;48.490;9.688;2023-01-13T12:10:17;1.98;;;0.40;;
45043;SDS011;30784;48.490;9.688;2023-01-13T12:12:51;0.75;;;0.20;;
45043;SDS011;30784;48.490;9.688;2023-01-13T12:15:30;1.25;;;0.20;;
45043;SDS011;30784;48.490;9.688;2023-01-13T12:18:38;0.82;;;0.20;;
45043;SDS011;30784;48.490;9.688;2023-01-13T12:21:27;0.95;;;0.20;;
45043;SDS011;30784;48.490;9.688;2023-01-13T12:24:05;0.38;;;0.10;;
45043;SDS011;30784;48.490;9.688;2023-01-13T12:26:48;1.10;;;0.30;;
45043;SDS011;30784;48.490;9.688;2023-01-13T12:29:19;2.10;;;0.60;;
45043;SDS011;30784;48.490;9.688;2023-01-13T12:31:55;2.40;;;0.45;;
45043;SDS011;30784;48.490;9.688;2023-01-13T12:34:46;2.95;;;0.60;;
45043;SDS011;30784;48.490;9.688;2023-01-13T12:37:47;2.05;;;0.47;;
45043;SDS011;30784;48.490;9.688;2023-01-13T12:40:35;3.47;;;0.80;;
45043;SDS011;30784;48.490;9.688;2023-01-13T12:51:20;3.33;;;0.63;;
45043;SDS011;30784;48.490;9.688;2023-01-13T12:53:46;3.33;;;0.80;;
45043;SDS011;30784;48.490;9.688;2023-01-13T12:56:28;3.40;;;0.90;;
45043;SDS011;30784;48.490;9.688;2023-01-13T13:01:43;5.63;;;1.00;;
45043;SDS011;30784;48.490;9.688;2023-01-13T13:04:16;6.82;;;1.30;;
45043;SDS011;30784;48.490;9.688;2023-01-13T13:06:52;5.22;;;1.33;;
45043;SDS011;30784;48.490;9.688;2023-01-13T13:09:34;7.93;;;2.20;;
45043;SDS011;30784;48.490;9.688;2023-01-13T13:15:22;8.02;;;2.13;;
45043;SDS011;30784;48.490;9.688;2023-01-13T13:28:54;5.57;;;0.97;;
45043;SDS011;30784;48.490;9.688;2023-01-13T13:37:00;4.07;;;0.75;;
45043;SDS011;30784;48.490;9.688;2023-01-13T13:39:29;5.05;;;0.60;;
45043;SDS011;30784;48.490;9.688;2023-01-13T13:42:19;6.25;;;0.90;;
45043;SDS011;30784;48.490;9.688;2023-01-13T13:45:13;3.78;;;0.70;;
45043;SDS011;30784;48.490;9.688;2023-01-13T13:50:50;3.55;;;0.77;;
45043;SDS011;30784;48.490;9.688;2023-01-13T13:53:26;4.45;;;0.80;;
45043;SDS011;30784;48.490;9.688;2023-01-13T13:55:56;5.13;;;0.90;;
45043;SDS011;30784;48.490;9.688;2023-01-13T13:58:23;6.60;;;1.10;;
45043;SDS011;30784;48.490;9.688;2023-01-13T14:00:51;5.13;;;1.27;;
45043;SDS011;30784;48.490;9.688;2023-01-13T14:03:22;5.93;;;1.00;;
45043;SDS011;30784;48.490;9.688;2023-01-13T14:05:54;4.80;;;1.20;;
45043;SDS011;30784;48.490;9.688;2023-01-13T14:08:22;5.65;;;1.40;;
45043;SDS011;30784;48.490;9.688;2023-01-13T14:10:48;5.07;;;1.15;;
45043;SDS011;30784;48.490;9.688;2023-01-13T14:13:19;7.18;;;1.20;;
45043;SDS011;30784;48.490;9.688;2023-01-13T14:15:48;5.93;;;1.20;;
45043;SDS011;30784;48.490;9.688;2023-01-13T14:18:20;8.10;;;1.48;;
45043;SDS011;30784;48.490;9.688;2023-01-13T14:20:53;5.80;;;1.00;;
45043;SDS011;30784;48.490;9.688;2023-01-13T14:23:27;7.60;;;2.00;;
45043;SDS011;30784;48.490;9.688;2023-01-13T14:25:54;5.32;;;0.90;;
45043;SDS011;30784;48.490;9.688;2023-01-13T14:28:29;5.90;;;0.80;;
45043;SDS011;30784;48.490;9.688;2023-01-13T14:30:59;6.78;;;0.95;;
45043;SDS011;30784;48.490;9.688;2023-01-13T14:33:36;5.72;;;0.88;;
45043;SDS011;30784;48.490;9.688;2023-01-13T14:38:35;5.70;;;0.80;;
45043;SDS011;30784;48.490;9.688;2023-01-13T14:41:08;6.22;;;0.80;;
45043;SDS011;30784;48.490;9.688;2023-01-13T14:43:45;5.78;;;1.20;;
45043;SDS011;30784;48.490;9.688;2023-01-13T14:46:12;5.60;;;1.20;;
45043;SDS011;30784;48.490;9.688;2023-01-13T14:48:38;4.68;;;1.20;;
45043;SDS011;30784;48.490;9.688;2023-01-13T14:51:11;8.15;;;1.17;;
45043;SDS011;30784;48.490;9.688;2023-01-13T14:53:44;6.60;;;0.90;;
45043;SDS011;30784;48.490;9.688;2023-01-13T15:05:22;5.45;;;1.20;;
45043;SDS011;30784;48.490;9.688;2023-01-13T15:10:22;7.13;;;1.70;;
45043;SDS011;30784;48.490;9.688;2023-01-13T15:16:06;4.95;;;0.90;;
45043;SDS011;30784;48.490;9.688;2023-01-13T15:18:42;5.30;;;0.90;;
45043;SDS011;30784;48.490;9.688;2023-01-13T15:21:08;6.25;;;1.33;;
45043;SDS011;30784;48.490;9.688;2023-01-13T15:23:34;6.50;;;1.20;;
45043;SDS011;30784;48.490;9.688;2023-01-13T15:26:00;4.15;;;0.90;;
45043;SDS011;30784;48.490;9.688;2023-01-13T15:28:26;4.97;;;0.95;;
45043;SDS011;30784;48.490;9.688;2023-01-13T15:30:53;5.88;;;0.90;;
45043;SDS011;30784;48.490;9.688;2023-01-13T15:33:20;4.65;;;0.82;;
45043;SDS011;30784;48.490;9.688;2023-01-13T15:35:48;4.63;;;0.70;;
45043;SDS011;30784;48.490;9.688;2023-01-13T15:38:16;9.05;;;2.05;;
45043;SDS011;30784;48.490;9.688;2023-01-13T15:40:44;9.90;;;2.00;;
45043;SDS011;30784;48.490;9.688;2023-01-13T15:43:20;8.93;;;2.33;;
45043;SDS011;30784;48.490;9.688;2023-01-13T15:46:12;8.88;;;3.13;;
45043;SDS011;30784;48.490;9.688;2023-01-13T15:49:00;10.43;;;3.65;;
45043;SDS011;30784;48.490;9.688;2023-01-13T15:51:27;8.35;;;3.08;;
45043;SDS011;30784;48.490;9.688;2023-01-13T15:53:53;6.72;;;2.25;;
45043;SDS011;30784;48.490;9.688;2023-01-13T15:56:22;6.20;;;1.40;;
45043;SDS011;30784;48.490;9.688;2023-01-13T15:58:50;4.53;;;1.00;;
45043;SDS011;30784;48.490;9.688;2023-01-13T16:01:16;4.50;;;1.27;;
45043;SDS011;30784;48.490;9.688;2023-01-13T16:03:42;6.70;;;1.40;;
45043;SDS011;30784;48.490;9.688;2023-01-13T16:06:19;6.03;;;1.60;;
45043;SDS011;30784;48.490;9.688;2023-01-13T16:08:48;6.03;;;1.20;;
45043;SDS011;30784;48.490;9.688;2023-01-13T16:11:14;5.50;;;1.10;;
45043;SDS011;30784;48.490;9.688;2023-01-13T16:13:39;4.80;;;1.08;;
45043;SDS011;30784;48.490;9.688;2023-01-13T16:16:19;7.22;;;1.00;;
45043;SDS011;30784;48.490;9.688;2023-01-13T16:18:46;5.28;;;1.00;;
45043;SDS011;30784;48.490;9.688;2023-01-13T16:21:12;5.57;;;0.90;;
45043;SDS011;30784;48.490;9.688;2023-01-13T16:23:38;5.07;;;1.10;;
45043;SDS011;30784;48.490;9.688;2023-01-13T16:26:06;7.22;;;1.35;;
45043;SDS011;30784;48.490;9.688;2023-01-13T16:28:37;4.95;;;1.40;;
45043;SDS011;30784;48.490;9.688;2023-01-13T16:31:14;4.65;;;1.20;;
45043;SDS011;30784;48.490;9.688;2023-01-13T16:33:55;6.90;;;1.40;;
45043;SDS011;30784;48.490;9.688;2023-01-13T16:36:21;11.88;;;1.30;;
45043;SDS011;30784;48.490;9.688;2023-01-13T16:38:48;7.15;;;1.40;;
45043;SDS011;30784;48.490;9.688;2023-01-13T16:41:15;6.13;;;1.08;;
45043;SDS011;30784;48.490;9.688;2023-01-13T16:43:40;6.65;;;1.40;;
45043;SDS011;30784;48.490;9.688;2023-01-13T16:48:45;7.93;;;2.20;;
45043;SDS011;30784;48.490;9.688;2023-01-13T16:51:11;8.65;;;2.00;;
45043;SDS011;30784;48.490;9.688;2023-01-13T16:53:37;9.25;;;1.92;;
45043;SDS011;30784;48.490;9.688;2023-01-13T16:56:02;6.57;;;1.55;;
45043;SDS011;30784;48.490;9.688;2023-01-13T16:58:34;6.90;;;1.20;;
45043;SDS011;30784;48.490;9.688;2023-01-13T17:01:01;5.28;;;1.00;;
45043;SDS011;30784;48.490;9.688;2023-01-13T17:03:27;7.20;;;1.00;;
45043;SDS011;30784;48.490;9.688;2023-01-13T17:05:55;9.85;;;1.55;;
45043;SDS011;30784;48.490;9.688;2023-01-13T17:08:21;6.85;;;1.33;;
45043;SDS011;30784;48.490;9.688;2023-01-13T17:10:46;7.28;;;1.42;;
45043;SDS011;30784;48.490;9.688;2023-01-13T17:13:14;7.50;;;1.85;;
45043;SDS011;30784;48.490;9.688;2023-01-13T17:15:39;7.97;;;1.70;;
45043;SDS011;30784;48.490;9.688;2023-01-13T17:18:05;10.13;;;2.22;;
45043;SDS011;30784;48.490;9.688;2023-01-13T17:20:31;6.97;;;1.60;;
45043;SDS011;30784;48.490;9.688;2023-01-13T17:22:56;8.77;;;1.50;;
45043;SDS011;30784;48.490;9.688;2023-01-13T17:25:22;4.57;;;1.20;;
45043;SDS011;30784;48.490;9.688;2023-01-13T17:27:47;6.03;;;1.15;;
45043;SDS011;30784;48.490;9.688;2023-01-13T17:30:13;4.03;;;1.10;;
45043;SDS011;30784;48.490;9.688;2023-01-13T17:32:39;7.20;;;1.20;;
45043;SDS011;30784;48.490;9.688;2023-01-13T17:35:06;4.72;;;0.90;;
45043;SDS011;30784;48.490;9.688;2023-01-13T17:37:32;6.00;;;1.30;;